Time;durP1;ratioP1;P1;durP2;ratioP2;P2;SDS_P1;SDS_P2;PMS_P1;PMS_P2;Temp;Humidity;BMP_temperature;BMP_pressure;BME280_temperature;BME280_humidity;BME280_pressure;Samples;Min_cycle;Max_cycle;Signal;HPM_P1;HPM_P2
2024/02/15 00:00:03;;;;;;;;;;;;;;;;;;348482;28;1005;-81
2024/02/15 00:00:15;;;;;;;;;;;;;;;;;;344274;28;1171;-81
2024/02/15 00:00:27;;;;;;;;;;;;;;;;;;344670;28;1533;-81
2024/02/15 00:00:37;;;;;;;;;;;;;;;;;;345655;28;1176;-81
2024/02/15 00:00:48;;;;;;;;;;;;;;;;;;345621;28;1227;-81
2024/02/15 00:00:59;;;;;;;;;;;;;;;;;;345433;28;1547;-80
2024/02/15 00:01:10;;;;;;;;;;;;;;;;;;341686;28;1041;-80
2024/02/15 00:01:20;;;;;;;;;;;;;;;;;;344345;28;1261;-80
2024/02/15 00:01:30;;;;;;;;;;;;;;;;;;345740;28;1024;-80
2024/02/15 00:01:40;;;;;;;;;;;;;;;;;;345781;28;958;-80
2024/02/15 00:01:50;;;;;;;;;;;;;;;;;;346981;28;1418;-80
2024/02/15 00:02:01;;;;;;;;;;;;;;;;;;345732;28;1017;-81
2024/02/15 00:02:11;;;;;;;;;;;;;;;;;;344369;28;1050;-81
2024/02/15 00:02:21;;;;;;;;;;;;;;;;;;344391;28;966;-81
2024/02/15 00:02:31;;;;;;;;;;;;;;;;;;343083;28;871;-81
2024/02/15 00:02:44;;;;;;;;;;;;;;;;;;344060;28;839;-81
2024/02/15 00:02:56;;;;;;;;;;;;;;;;;;344351;28;780;-81
2024/02/15 00:03:06;;;;;;;;;;;;;;;;;;342922;28;986;-81
2024/02/15 00:03:16;;;;;;;;;;;;;;;;;;344452;28;820;-81
2024/02/15 00:03:26;;;;;;;;;;;;;;;;;;344323;28;1371;-81
2024/02/15 00:03:37;;;;;;;;;;;;;;;;;;344454;28;851;-81
2024/02/15 00:03:48;;;;;;;;;;;;;;;;;;342987;28;1283;-81
2024/02/15 00:03:58;;;;;;;;;;;;;;;;;;344416;28;942;-81
2024/02/15 00:04:10;;;;;;;;;;;;;;;;;;345720;28;1029;-81
2024/02/15 00:04:21;;;;;;;;;;;;;;;;;;345688;28;998;-81
2024/02/15 00:04:31;;;;;;;;;;;;;;;;;;347138;28;898;-81
2024/02/15 00:04:42;;;;;;;;;;;;;;;;;;347050;28;1311;-81
2024/02/15 00:04:52;;;;;;;;;;;;;;;;;;346210;28;1366;-81
2024/02/15 00:05:03;;;;;;;;;;;;;;;;;;345779;28;1050;-81
2024/02/15 00:05:15;;;;;;;;;;;;;;;;;;345531;28;994;-81
2024/02/15 00:05:26;;;;;;;;;;;;;;;;;;346476;28;1616;-81
2024/02/15 00:05:36;;;;;;;;;;;;;;;;;;345754;28;998;-81
2024/02/15 00:05:46;;;;;;;;;;;;;;;;;;346897;28;1065;-81
2024/02/15 00:05:57;;;;;;;;;;;;;;;;;;347963;28;1270;-80
2024/02/15 00:06:07;;;;;;;;;;;;;;;;;;348133;28;1303;-81
2024/02/15 00:06:18;;;;;;;;;;;;;;;;;;347036;28;1266;-81
2024/02/15 00:06:28;;;;;;;;;;;;;;;;;;346271;28;783;-81
2024/02/15 00:06:38;;;;;;;;;;;;;;;;;;345695;28;994;-81
2024/02/15 00:06:48;;;;;;;;;;;;;;;;;;347082;28;1305;-81
2024/02/15 00:06:59;;;;;;;;;;;;;;;;;;347048;28;966;-81
2024/02/15 00:07:10;;;;;;;;;;;;;;;;;;345763;28;916;-81
2024/02/15 00:07:22;;;;;;;;;;;;;;;;;;347124;28;1025;-81
2024/02/15 00:07:33;;;;;;;;;;;;;;;;;;347000;28;1104;-80
2024/02/15 00:07:43;;;;;;;;;;;;;;;;;;347142;28;1894;-80
2024/02/15 00:07:54;;;;;;;;;;;;;;;;;;344377;28;1081;-81
2024/02/15 00:08:04;;;;;;;;;;;;;;;;;;344387;28;959;-81
2024/02/15 00:08:15;;;;;;;;;;;;;;;;;;344154;28;1184;-81
2024/02/15 00:08:26;;;;;;;;;;;;;;;;;;344322;28;974;-81
2024/02/15 00:08:36;;;;;;;;;;;;;;;;;;344759;28;1560;-81
2024/02/15 00:08:47;;;;;;;;;;;;;;;;;;345110;28;804;-81
2024/02/15 00:08:57;;;;;;;;;;;;;;;;;;345662;28;1252;-81
2024/02/15 00:09:07;;;;;;;;;;;;;;;;;;344286;28;1293;-81
2024/02/15 00:09:18;;;;;;;;;;;;;;;;;;344287;28;987;-81
2024/02/15 00:09:28;;;;;;;;;;;;;;;;;;344280;28;1172;-81
2024/02/15 00:09:38;;;;;;;;;;;;;;;;;;345604;28;1197;-80
2024/02/15 00:09:49;;;;;;;;;;;;;;;;;;344371;28;1046;-80
2024/02/15 00:09:59;;;;;;;;;;;;;;;;;;345725;28;971;-80
2024/02/15 00:10:09;;;;;;;;;;;;;;;;;;347001;28;1312;-80
2024/02/15 00:10:24;;;;;;;;;;;;;;;;;;347099;28;1417;-81
2024/02/15 00:10:34;;;;;;;;;;;;;;;;;;347121;28;978;-81
2024/02/15 00:10:46;;;;;;;;;;;;;;;;;;346874;28;978;-81
2024/02/15 00:10:56;;;;;;;;;;;;;;;;;;345673;28;970;-81
2024/02/15 00:11:09;;;;;;;;;;;;;;;;;;347045;28;1077;-81
2024/02/15 00:11:19;;;;;;;;;;;;;;;;;;345672;28;1192;-81
2024/02/15 00:11:29;;;;;;;;;;;;;;;;;;345635;28;1290;-81
2024/02/15 00:11:39;;;;;;;;;;;;;;;;;;345809;28;982;-81
2024/02/15 00:11:49;;;;;;;;;;;;;;;;;;344204;28;1193;-81
2024/02/15 00:12:00;;;;;;;;;;;;;;;;;;344434;28;1045;-81
2024/02/15 00:12:10;;;;;;;;;;;;;;;;;;345730;28;1004;-81
2024/02/15 00:12:20;;;;;;;;;;;;;;;;;;347834;28;1483;-81
2024/02/15 00:12:31;;;;;;;;;;;;;;;;;;344275;28;1311;-81
2024/02/15 00:12:41;;;;;;;;;;;;;;;;;;344438;28;966;-81
2024/02/15 00:12:51;;;;;;;;;;;;;;;;;;346860;28;1381;-81
2024/02/15 00:13:02;;;;;;;;;;;;;;;;;;345720;28;962;-81
2024/02/15 00:13:12;;;;;;;;;;;;;;;;;;344312;28;951;-81
2024/02/15 00:13:23;;;;;;;;;;;;;;;;;;344397;28;1049;-81
2024/02/15 00:13:33;;;;;;;;;;;;;;;;;;344266;28;998;-81
2024/02/15 00:13:44;;;;;;;;;;;;;;;;;;344442;28;979;-81
2024/02/15 00:13:56;;;;;;;;;;;;;;;;;;344330;28;1331;-81
2024/02/15 00:14:07;;;;;;;;;;;;;;;;;;347068;28;788;-81
2024/02/15 00:14:18;;;;;;;;;;;;;;;;;;344322;28;1041;-81
2024/02/15 00:14:29;;;;;;;;;;;;;;;;;;346358;28;1313;-81
2024/02/15 00:14:39;;;;;;;;;;;;;;;;;;346994;28;870;-81
2024/02/15 00:14:49;;;;;;;;;;;;;;;;;;345692;28;1290;-81
2024/02/15 00:15:00;;;;;;;;;;;;;;;;;;348390;28;1401;-81
2024/02/15 00:15:11;;;;;;;;;;;;;;;;;;345719;28;1293;-81
2024/02/15 00:15:21;;;;;;;;;;;;;;;;;;345651;28;1017;-81
2024/02/15 00:15:31;;;;;;;;;;;;;;;;;;345785;28;1148;-81
2024/02/15 00:15:42;;;;;;;;;;;;;;;;;;346996;28;1041;-81
2024/02/15 00:15:52;;;;;;;;;;;;;;;;;;345608;28;1305;-81
2024/02/15 00:16:02;;;;;;;;;;;;;;;;;;345494;28;1402;-81
2024/02/15 00:16:13;;;;;;;;;;;;;;;;;;345775;28;963;-81
2024/02/15 00:16:23;;;;;;;;;;;;;;;;;;345637;28;1457;-81
2024/02/15 00:16:35;;;;;;;;;;;;;;;;;;345572;28;1285;-81
2024/02/15 00:16:45;;;;;;;;;;;;;;;;;;345672;28;1213;-81
2024/02/15 00:16:56;;;;;;;;;;;;;;;;;;343077;28;871;-81
2024/02/15 00:17:06;;;;;;;;;;;;;;;;;;343004;28;982;-81
2024/02/15 00:17:16;;;;;;;;;;;;;;;;;;344259;28;1164;-81
2024/02/15 00:17:29;;;;;;;;;;;;;;;;;;347035;28;1203;-81
2024/02/15 00:17:39;;;;;;;;;;;;;;;;;;347114;28;1013;-81
2024/02/15 00:17:49;;;;;;;;;;;;;;;;;;347104;28;1010;-81
2024/02/15 00:17:59;;;;;;;;;;;;;;;;;;347113;28;851;-81
2024/02/15 00:18:09;;;;;;;;;;;;;;;;;;347089;28;780;-81
2024/02/15 00:18:20;;;;;;;;;;;;;;;;;;348415;28;966;-81
2024/02/15 00:18:31;;;;;;;;;;;;;;;;;;346996;28;1239;-81
2024/02/15 00:18:41;;;;;;;;;;;;;;;;;;345669;28;1356;-81
2024/02/15 00:18:51;;;;;;;;;;;;;;;;;;345396;28;1172;-81
2024/02/15 00:19:02;;;;;;;;;;;;;;;;;;344382;28;1003;-81
2024/02/15 00:19:14;;;;;;;;;;;;;;;;;;344353;28;907;-81
2024/02/15 00:19:24;;;;;;;;;;;;;;;;;;344384;28;938;-81
2024/02/15 00:19:35;;;;;;;;;;;;;;;;;;344269;28;1406;-81
2024/02/15 00:19:46;;;;;;;;;;;;;;;;;;344369;28;1022;-81
2024/02/15 00:19:56;;;;;;;;;;;;;;;;;;344257;28;1033;-81
2024/02/15 00:20:09;;;;;;;;;;;;;;;;;;344329;28;1169;-81
2024/02/15 00:20:20;;;;;;;;;;;;;;;;;;341628;29;1193;-81
2024/02/15 00:20:30;;;;;;;;;;;;;;;;;;343966;28;1041;-81
2024/02/15 00:20:40;;;;;;;;;;;;;;;;;;344373;28;967;-81
2024/02/15 00:20:50;;;;;;;;;;;;;;;;;;344318;28;1379;-81
2024/02/15 00:21:01;;;;;;;;;;;;;;;;;;344399;28;1143;-81
2024/02/15 00:21:11;;;;;;;;;;;;;;;;;;344249;28;1584;-81
2024/02/15 00:21:22;;;;;;;;;;;;;;;;;;344866;28;1516;-81
2024/02/15 00:21:33;;;;;;;;;;;;;;;;;;344198;28;1438;-81
2024/02/15 00:21:43;;;;;;;;;;;;;;;;;;341616;28;1073;-81
2024/02/15 00:21:55;;;;;;;;;;;;;;;;;;341443;29;1070;-81
2024/02/15 00:22:05;;;;;;;;;;;;;;;;;;342459;28;1030;-81
2024/02/15 00:22:16;;;;;;;;;;;;;;;;;;343052;28;971;-81
2024/02/15 00:22:26;;;;;;;;;;;;;;;;;;344373;28;1046;-81
2024/02/15 00:22:36;;;;;;;;;;;;;;;;;;347023;28;947;-81
2024/02/15 00:22:47;;;;;;;;;;;;;;;;;;348447;28;1044;-81
2024/02/15 00:22:58;;;;;;;;;;;;;;;;;;348439;28;1010;-81
2024/02/15 00:23:08;;;;;;;;;;;;;;;;;;348420;28;1288;-81
2024/02/15 00:23:18;;;;;;;;;;;;;;;;;;348400;28;1373;-81
2024/02/15 00:23:28;;;;;;;;;;;;;;;;;;348474;28;1018;-81
2024/02/15 00:23:41;;;;;;;;;;;;;;;;;;347232;28;1040;-81
2024/02/15 00:23:51;;;;;;;;;;;;;;;;;;348476;28;1033;-81
2024/02/15 00:24:01;;;;;;;;;;;;;;;;;;348319;28;1052;-81
2024/02/15 00:24:11;;;;;;;;;;;;;;;;;;345678;28;971;-81
2024/02/15 00:24:22;;;;;;;;;;;;;;;;;;345732;28;1072;-81
2024/02/15 00:24:32;;;;;;;;;;;;;;;;;;348517;28;938;-81
2024/02/15 00:24:43;;;;;;;;;;;;;;;;;;348432;28;950;-81
2024/02/15 00:24:54;;;;;;;;;;;;;;;;;;349760;28;1196;-81
2024/02/15 00:25:05;;;;;;;;;;;;;;;;;;348382;28;1444;-81
2024/02/15 00:25:16;;;;;;;;;;;;;;;;;;348333;28;922;-81
2024/02/15 00:25:26;;;;;;;;;;;;;;;;;;345738;28;1006;-81
2024/02/15 00:25:36;;;;;;;;;;;;;;;;;;346928;28;1265;-81
2024/02/15 00:25:46;;;;;;;;;;;;;;;;;;347077;28;955;-81
2024/02/15 00:25:56;;;;;;;;;;;;;;;;;;347132;28;990;-81
2024/02/15 00:26:06;;;;;;;;;;;;;;;;;;345638;28;1204;-81
2024/02/15 00:26:17;;;;;;;;;;;;;;;;;;345742;28;1089;-81
2024/02/15 00:26:27;;;;;;;;;;;;;;;;;;345606;28;975;-81
2024/02/15 00:26:38;;;;;;;;;;;;;;;;;;345573;28;1322;-81
2024/02/15 00:26:48;;;;;;;;;;;;;;;;;;345754;28;935;-81
2024/02/15 00:26:58;;;;;;;;;;;;;;;;;;345566;28;1033;-81
2024/02/15 00:27:08;;;;;;;;;;;;;;;;;;346990;28;807;-81
2024/02/15 00:27:18;;;;;;;;;;;;;;;;;;347090;28;1030;-81
2024/02/15 00:27:29;;;;;;;;;;;;;;;;;;345644;28;1274;-81
2024/02/15 00:27:39;;;;;;;;;;;;;;;;;;344276;28;1895;-81
2024/02/15 00:27:49;;;;;;;;;;;;;;;;;;345757;28;974;-81
2024/02/15 00:28:00;;;;;;;;;;;;;;;;;;345530;28;1192;-81
2024/02/15 00:28:11;;;;;;;;;;;;;;;;;;348386;28;1198;-81
2024/02/15 00:28:23;;;;;;;;;;;;;;;;;;347012;28;1406;-81
2024/02/15 00:28:34;;;;;;;;;;;;;;;;;;344218;28;1303;-81
2024/02/15 00:28:44;;;;;;;;;;;;;;;;;;343108;28;796;-81
2024/02/15 00:28:54;;;;;;;;;;;;;;;;;;342856;28;1522;-81
2024/02/15 00:29:04;;;;;;;;;;;;;;;;;;342938;28;1375;-81
2024/02/15 00:29:15;;;;;;;;;;;;;;;;;;342913;28;1054;-81
2024/02/15 00:29:28;;;;;;;;;;;;;;;;;;345895;28;1225;-81
2024/02/15 00:29:40;;;;;;;;;;;;;;;;;;345704;28;981;-81
2024/02/15 00:29:50;;;;;;;;;;;;;;;;;;346850;28;1228;-81
2024/02/15 00:30:01;;;;;;;;;;;;;;;;;;346854;28;1312;-81
2024/02/15 00:30:12;;;;;;;;;;;;;;;;;;345684;28;979;-81
2024/02/15 00:30:22;;;;;;;;;;;;;;;;;;342984;28;998;-81
2024/02/15 00:30:32;;;;;;;;;;;;;;;;;;341701;28;951;-81
2024/02/15 00:30:42;;;;;;;;;;;;;;;;;;344283;28;1296;-81
2024/02/15 00:30:53;;;;;;;;;;;;;;;;;;344355;28;974;-81
2024/02/15 00:31:03;;;;;;;;;;;;;;;;;;344249;28;1310;-81
2024/02/15 00:31:14;;;;;;;;;;;;;;;;;;344326;28;1069;-81
2024/02/15 00:31:24;;;;;;;;;;;;;;;;;;347024;28;1176;-81
2024/02/15 00:31:35;;;;;;;;;;;;;;;;;;347084;28;978;-81
2024/02/15 00:31:46;;;;;;;;;;;;;;;;;;348151;28;1325;-81
2024/02/15 00:31:57;;;;;;;;;;;;;;;;;;348993;28;1447;-81
2024/02/15 00:32:07;;;;;;;;;;;;;;;;;;347035;28;899;-81
2024/02/15 00:32:17;;;;;;;;;;;;;;;;;;344323;28;1188;-81
2024/02/15 00:32:27;;;;;;;;;;;;;;;;;;346270;28;1489;-81
2024/02/15 00:32:38;;;;;;;;;;;;;;;;;;347047;28;1029;-81
2024/02/15 00:32:48;;;;;;;;;;;;;;;;;;348312;28;1460;-81
2024/02/15 00:33:00;;;;;;;;;;;;;;;;;;347018;28;1263;-81
2024/02/15 00:33:10;;;;;;;;;;;;;;;;;;345622;28;939;-81
2024/02/15 00:33:22;;;;;;;;;;;;;;;;;;345303;28;1164;-81
2024/02/15 00:33:32;;;;;;;;;;;;;;;;;;346897;28;1193;-81
2024/02/15 00:33:42;;;;;;;;;;;;;;;;;;346971;28;962;-81
2024/02/15 00:33:53;;;;;;;;;;;;;;;;;;345422;28;1285;-81
2024/02/15 00:34:04;;;;;;;;;;;;;;;;;;342693;28;1201;-81
2024/02/15 00:34:14;;;;;;;;;;;;;;;;;;342827;28;1130;-81
2024/02/15 00:34:26;;;;;;;;;;;;;;;;;;344294;28;1681;-81
2024/02/15 00:34:38;;;;;;;;;;;;;;;;;;345541;28;1045;-81
2024/02/15 00:34:49;;;;;;;;;;;;;;;;;;347024;28;1196;-81
2024/02/15 00:34:59;;;;;;;;;;;;;;;;;;346544;28;1037;-81
2024/02/15 00:35:09;;;;;;;;;;;;;;;;;;346255;28;1390;-81
2024/02/15 00:35:19;;;;;;;;;;;;;;;;;;346949;28;1196;-81
2024/02/15 00:35:30;;;;;;;;;;;;;;;;;;348338;28;1295;-81
2024/02/15 00:35:40;;;;;;;;;;;;;;;;;;348503;28;973;-81
2024/02/15 00:35:51;;;;;;;;;;;;;;;;;;348449;28;871;-81
2024/02/15 00:36:03;;;;;;;;;;;;;;;;;;345588;28;1288;-81
2024/02/15 00:36:14;;;;;;;;;;;;;;;;;;344642;28;1658;-81
2024/02/15 00:36:24;;;;;;;;;;;;;;;;;;343049;28;931;-81
2024/02/15 00:36:34;;;;;;;;;;;;;;;;;;345532;28;1295;-80
2024/02/15 00:36:44;;;;;;;;;;;;;;;;;;346926;28;1235;-80
2024/02/15 00:36:55;;;;;;;;;;;;;;;;;;348264;28;1014;-81
2024/02/15 00:37:05;;;;;;;;;;;;;;;;;;346958;28;947;-81
2024/02/15 00:37:16;;;;;;;;;;;;;;;;;;347062;28;982;-81
2024/02/15 00:37:26;;;;;;;;;;;;;;;;;;347051;28;994;-81
2024/02/15 00:37:36;;;;;;;;;;;;;;;;;;347050;28;963;-81
2024/02/15 00:37:47;;;;;;;;;;;;;;;;;;346907;28;1393;-81
2024/02/15 00:37:57;;;;;;;;;;;;;;;;;;346997;28;1405;-81
2024/02/15 00:38:07;;;;;;;;;;;;;;;;;;346953;28;1010;-81
2024/02/15 00:38:19;;;;;;;;;;;;;;;;;;348247;28;1183;-81
2024/02/15 00:38:29;;;;;;;;;;;;;;;;;;348380;28;938;-81
2024/02/15 00:38:39;;;;;;;;;;;;;;;;;;347035;28;1049;-80
2024/02/15 00:38:49;;;;;;;;;;;;;;;;;;347059;28;1077;-80
2024/02/15 00:39:00;;;;;;;;;;;;;;;;;;347106;28;950;-80
2024/02/15 00:39:11;;;;;;;;;;;;;;;;;;347057;28;947;-80
2024/02/15 00:39:21;;;;;;;;;;;;;;;;;;347042;28;832;-81
2024/02/15 00:39:32;;;;;;;;;;;;;;;;;;344254;28;1282;-81
2024/02/15 00:39:43;;;;;;;;;;;;;;;;;;347026;28;1191;-81
2024/02/15 00:39:53;;;;;;;;;;;;;;;;;;345047;28;1184;-81
2024/02/15 00:40:03;;;;;;;;;;;;;;;;;;345710;28;903;-81
2024/02/15 00:40:14;;;;;;;;;;;;;;;;;;344626;28;1338;-81
2024/02/15 00:40:24;;;;;;;;;;;;;;;;;;342951;28;1189;-81
2024/02/15 00:40:34;;;;;;;;;;;;;;;;;;344288;28;840;-81
2024/02/15 00:40:45;;;;;;;;;;;;;;;;;;344362;28;982;-80
2024/02/15 00:40:55;;;;;;;;;;;;;;;;;;345611;28;1425;-80
2024/02/15 00:41:06;;;;;;;;;;;;;;;;;;345687;28;998;-80
2024/02/15 00:41:16;;;;;;;;;;;;;;;;;;345636;28;1315;-81
2024/02/15 00:41:27;;;;;;;;;;;;;;;;;;342994;28;1320;-81
2024/02/15 00:41:41;;;;;;;;;;;;;;;;;;342827;28;1483;-81
2024/02/15 00:41:51;;;;;;;;;;;;;;;;;;346489;28;1292;-81
2024/02/15 00:42:02;;;;;;;;;;;;;;;;;;347095;28;1010;-81
2024/02/15 00:42:12;;;;;;;;;;;;;;;;;;346956;28;1069;-81
2024/02/15 00:42:22;;;;;;;;;;;;;;;;;;348379;28;1325;-81
2024/02/15 00:42:33;;;;;;;;;;;;;;;;;;349387;28;1037;-81
2024/02/15 00:42:43;;;;;;;;;;;;;;;;;;349854;28;1010;-81
2024/02/15 00:42:53;;;;;;;;;;;;;;;;;;348142;28;1520;-81
2024/02/15 00:43:04;;;;;;;;;;;;;;;;;;347123;28;997;-81
2024/02/15 00:43:14;;;;;;;;;;;;;;;;;;345468;28;1306;-81
2024/02/15 00:43:26;;;;;;;;;;;;;;;;;;345719;28;819;-81
2024/02/15 00:43:36;;;;;;;;;;;;;;;;;;345688;28;1049;-81
2024/02/15 00:43:47;;;;;;;;;;;;;;;;;;345152;28;1072;-81
2024/02/15 00:43:57;;;;;;;;;;;;;;;;;;344110;28;994;-81
2024/02/15 00:44:08;;;;;;;;;;;;;;;;;;344330;28;1340;-81
2024/02/15 00:44:19;;;;;;;;;;;;;;;;;;345594;28;1630;-81
2024/02/15 00:44:29;;;;;;;;;;;;;;;;;;345715;28;844;-81
2024/02/15 00:44:39;;;;;;;;;;;;;;;;;;345653;28;994;-81
2024/02/15 00:44:49;;;;;;;;;;;;;;;;;;345696;28;1036;-81
2024/02/15 00:45:00;;;;;;;;;;;;;;;;;;345546;28;1299;-81
2024/02/15 00:45:10;;;;;;;;;;;;;;;;;;345595;28;1264;-81
2024/02/15 00:45:21;;;;;;;;;;;;;;;;;;341629;29;1201;-81
2024/02/15 00:45:31;;;;;;;;;;;;;;;;;;341780;28;1502;-81
2024/02/15 00:45:41;;;;;;;;;;;;;;;;;;343017;28;1027;-81
2024/02/15 00:45:51;;;;;;;;;;;;;;;;;;344439;28;788;-81
2024/02/15 00:46:02;;;;;;;;;;;;;;;;;;344325;28;992;-81
2024/02/15 00:46:12;;;;;;;;;;;;;;;;;;344227;28;1093;-81
2024/02/15 00:46:22;;;;;;;;;;;;;;;;;;344331;28;1014;-81
2024/02/15 00:46:32;;;;;;;;;;;;;;;;;;345169;28;1107;-81
2024/02/15 00:46:42;;;;;;;;;;;;;;;;;;345736;28;844;-81
2024/02/15 00:46:53;;;;;;;;;;;;;;;;;;345380;28;1362;-81
2024/02/15 00:47:03;;;;;;;;;;;;;;;;;;344422;28;867;-81
2024/02/15 00:47:13;;;;;;;;;;;;;;;;;;345564;28;1299;-81
2024/02/15 00:47:23;;;;;;;;;;;;;;;;;;347064;28;1298;-81
2024/02/15 00:47:34;;;;;;;;;;;;;;;;;;347689;28;1412;-81
2024/02/15 00:47:44;;;;;;;;;;;;;;;;;;345612;28;1960;-81
2024/02/15 00:47:55;;;;;;;;;;;;;;;;;;344251;28;1200;-81
2024/02/15 00:48:06;;;;;;;;;;;;;;;;;;345719;28;835;-81
2024/02/15 00:48:16;;;;;;;;;;;;;;;;;;345678;28;1030;-81
2024/02/15 00:48:28;;;;;;;;;;;;;;;;;;345740;28;895;-81
2024/02/15 00:48:40;;;;;;;;;;;;;;;;;;347078;28;970;-81
2024/02/15 00:48:50;;;;;;;;;;;;;;;;;;349822;28;966;-81
2024/02/15 00:49:00;;;;;;;;;;;;;;;;;;348382;28;974;-81
2024/02/15 00:49:10;;;;;;;;;;;;;;;;;;348358;28;1337;-81
2024/02/15 00:49:21;;;;;;;;;;;;;;;;;;348383;28;1500;-81
2024/02/15 00:49:32;;;;;;;;;;;;;;;;;;348490;28;1069;-81
2024/02/15 00:49:42;;;;;;;;;;;;;;;;;;348184;28;1671;-81
2024/02/15 00:49:52;;;;;;;;;;;;;;;;;;347043;28;1330;-81
2024/02/15 00:50:03;;;;;;;;;;;;;;;;;;345512;28;1413;-81
2024/02/15 00:50:13;;;;;;;;;;;;;;;;;;348245;28;1476;-81
2024/02/15 00:50:23;;;;;;;;;;;;;;;;;;348280;28;1504;-81
2024/02/15 00:50:33;;;;;;;;;;;;;;;;;;347094;28;970;-81
2024/02/15 00:50:44;;;;;;;;;;;;;;;;;;345690;28;1508;-81
2024/02/15 00:50:54;;;;;;;;;;;;;;;;;;345549;28;1358;-81
2024/02/15 00:51:04;;;;;;;;;;;;;;;;;;346907;28;1180;-81
2024/02/15 00:51:14;;;;;;;;;;;;;;;;;;346992;28;978;-81
2024/02/15 00:51:24;;;;;;;;;;;;;;;;;;346926;28;1342;-81
2024/02/15 00:51:35;;;;;;;;;;;;;;;;;;345579;28;991;-81
2024/02/15 00:51:45;;;;;;;;;;;;;;;;;;345756;28;825;-81
2024/02/15 00:51:56;;;;;;;;;;;;;;;;;;345616;28;1164;-81
2024/02/15 00:52:06;;;;;;;;;;;;;;;;;;345636;28;947;-81
2024/02/15 00:52:19;;;;;;;;;;;;;;;;;;346922;28;1361;-81
2024/02/15 00:52:30;;;;;;;;;;;;;;;;;;347096;28;1057;-81
2024/02/15 00:52:40;;;;;;;;;;;;;;;;;;348209;28;1420;-81
2024/02/15 00:52:51;;;;;;;;;;;;;;;;;;348255;28;1290;-81
2024/02/15 00:53:01;;;;;;;;;;;;;;;;;;346997;28;1495;-81
2024/02/15 00:53:11;;;;;;;;;;;;;;;;;;344326;28;982;-81
2024/02/15 00:53:21;;;;;;;;;;;;;;;;;;343058;28;954;-81
2024/02/15 00:53:32;;;;;;;;;;;;;;;;;;344368;28;918;-81
2024/02/15 00:53:42;;;;;;;;;;;;;;;;;;345592;28;1550;-81
2024/02/15 00:53:52;;;;;;;;;;;;;;;;;;348369;28;1293;-81
2024/02/15 00:54:03;;;;;;;;;;;;;;;;;;348470;28;989;-81
2024/02/15 00:54:13;;;;;;;;;;;;;;;;;;348446;28;848;-81
2024/02/15 00:54:23;;;;;;;;;;;;;;;;;;346803;28;1551;-81
2024/02/15 00:54:33;;;;;;;;;;;;;;;;;;349400;28;1353;-81
2024/02/15 00:54:44;;;;;;;;;;;;;;;;;;348648;28;1594;-81
2024/02/15 00:54:54;;;;;;;;;;;;;;;;;;346965;28;1030;-81
2024/02/15 00:55:04;;;;;;;;;;;;;;;;;;347095;28;1018;-81
2024/02/15 00:55:14;;;;;;;;;;;;;;;;;;344197;28;1338;-81
2024/02/15 00:55:25;;;;;;;;;;;;;;;;;;345594;28;1326;-81
2024/02/15 00:55:35;;;;;;;;;;;;;;;;;;344293;28;966;-81
2024/02/15 00:55:45;;;;;;;;;;;;;;;;;;346803;28;1496;-81
2024/02/15 00:55:55;;;;;;;;;;;;;;;;;;347038;28;882;-81
2024/02/15 00:56:06;;;;;;;;;;;;;;;;;;344166;28;1365;-81
2024/02/15 00:56:17;;;;;;;;;;;;;;;;;;345628;28;1061;-81
2024/02/15 00:56:29;;;;;;;;;;;;;;;;;;345655;28;954;-81
2024/02/15 00:56:39;;;;;;;;;;;;;;;;;;346803;28;1089;-81
2024/02/15 00:56:51;;;;;;;;;;;;;;;;;;347061;28;808;-81
2024/02/15 00:57:01;;;;;;;;;;;;;;;;;;348260;28;1400;-81
2024/02/15 00:57:12;;;;;;;;;;;;;;;;;;347116;28;792;-81
2024/02/15 00:57:22;;;;;;;;;;;;;;;;;;347036;28;800;-81
2024/02/15 00:57:32;;;;;;;;;;;;;;;;;;347019;28;1307;-81
2024/02/15 00:57:42;;;;;;;;;;;;;;;;;;347053;28;974;-81
2024/02/15 00:57:52;;;;;;;;;;;;;;;;;;345623;28;1401;-80
2024/02/15 00:58:03;;;;;;;;;;;;;;;;;;345165;28;1168;-80
2024/02/15 00:58:13;;;;;;;;;;;;;;;;;;344899;28;911;-81
2024/02/15 00:58:24;;;;;;;;;;;;;;;;;;344237;28;1037;-81
2024/02/15 00:58:34;;;;;;;;;;;;;;;;;;344330;28;978;-81
2024/02/15 00:58:44;;;;;;;;;;;;;;;;;;344367;28;1002;-81
2024/02/15 00:58:54;;;;;;;;;;;;;;;;;;345917;28;1319;-81
2024/02/15 00:59:05;;;;;;;;;;;;;;;;;;347416;28;1073;-81
2024/02/15 00:59:15;;;;;;;;;;;;;;;;;;347013;28;1006;-81
2024/02/15 00:59:25;;;;;;;;;;;;;;;;;;346810;28;1528;-81
2024/02/15 00:59:36;;;;;;;;;;;;;;;;;;345743;28;769;-81
2024/02/15 00:59:46;;;;;;;;;;;;;;;;;;345581;28;1175;-81
2024/02/15 00:59:56;;;;;;;;;;;;;;;;;;345718;28;788;-81
2024/02/15 01:00:09;;;;;;;;;;;;;;;;;;341601;28;1230;-81
2024/02/15 01:00:20;;;;;;;;;;;;;;;;;;344244;28;1441;-81
2024/02/15 01:00:30;;;;;;;;;;;;;;;;;;344320;28;998;-81
2024/02/15 01:00:40;;;;;;;;;;;;;;;;;;345611;28;1285;-81
2024/02/15 01:00:51;;;;;;;;;;;;;;;;;;346954;28;1180;-81
2024/02/15 01:01:01;;;;;;;;;;;;;;;;;;345316;28;1164;-81
2024/02/15 01:01:11;;;;;;;;;;;;;;;;;;345695;28;847;-81
2024/02/15 01:01:21;;;;;;;;;;;;;;;;;;345719;28;1501;-81
2024/02/15 01:01:32;;;;;;;;;;;;;;;;;;344385;28;809;-81
2024/02/15 01:01:42;;;;;;;;;;;;;;;;;;344314;28;812;-81
2024/02/15 01:01:53;;;;;;;;;;;;;;;;;;344363;28;987;-81
2024/02/15 01:02:03;;;;;;;;;;;;;;;;;;344305;28;1305;-81
2024/02/15 01:02:13;;;;;;;;;;;;;;;;;;345603;28;1317;-81
2024/02/15 01:02:24;;;;;;;;;;;;;;;;;;349613;28;1396;-81
2024/02/15 01:02:35;;;;;;;;;;;;;;;;;;349792;28;985;-81
2024/02/15 01:02:45;;;;;;;;;;;;;;;;;;344315;28;1220;-81
2024/02/15 01:02:56;;;;;;;;;;;;;;;;;;344349;28;1019;-81
2024/02/15 01:03:06;;;;;;;;;;;;;;;;;;344186;28;1311;-81
2024/02/15 01:03:16;;;;;;;;;;;;;;;;;;346902;28;970;-81
2024/02/15 01:03:26;;;;;;;;;;;;;;;;;;346487;28;1362;-81
2024/02/15 01:03:38;;;;;;;;;;;;;;;;;;345618;28;966;-81
2024/02/15 01:03:48;;;;;;;;;;;;;;;;;;345580;28;1279;-81
2024/02/15 01:03:58;;;;;;;;;;;;;;;;;;345642;28;1006;-81
2024/02/15 01:04:09;;;;;;;;;;;;;;;;;;344247;28;1378;-81
2024/02/15 01:04:19;;;;;;;;;;;;;;;;;;344226;28;1042;-80
2024/02/15 01:04:29;;;;;;;;;;;;;;;;;;344275;28;1342;-81
2024/02/15 01:04:39;;;;;;;;;;;;;;;;;;344218;28;1229;-81
2024/02/15 01:04:50;;;;;;;;;;;;;;;;;;344323;28;1074;-81
2024/02/15 01:05:01;;;;;;;;;;;;;;;;;;344268;28;1178;-81
2024/02/15 01:05:11;;;;;;;;;;;;;;;;;;345542;28;1335;-81
2024/02/15 01:05:21;;;;;;;;;;;;;;;;;;345664;28;870;-81
2024/02/15 01:05:33;;;;;;;;;;;;;;;;;;344354;28;950;-81
2024/02/15 01:05:43;;;;;;;;;;;;;;;;;;343013;28;1325;-81
2024/02/15 01:05:54;;;;;;;;;;;;;;;;;;344175;28;963;-81
2024/02/15 01:06:05;;;;;;;;;;;;;;;;;;346987;28;997;-81
2024/02/15 01:06:15;;;;;;;;;;;;;;;;;;345640;28;970;-81
2024/02/15 01:06:26;;;;;;;;;;;;;;;;;;345496;28;1303;-81
2024/02/15 01:06:36;;;;;;;;;;;;;;;;;;345735;28;1062;-81
2024/02/15 01:06:46;;;;;;;;;;;;;;;;;;345615;28;974;-81
2024/02/15 01:06:57;;;;;;;;;;;;;;;;;;344280;28;1215;-81
2024/02/15 01:07:08;;;;;;;;;;;;;;;;;;344245;28;975;-81
2024/02/15 01:07:18;;;;;;;;;;;;;;;;;;341674;28;793;-81
2024/02/15 01:07:28;;;;;;;;;;;;;;;;;;343137;28;1050;-81
2024/02/15 01:07:38;;;;;;;;;;;;;;;;;;344188;28;1890;-81
2024/02/15 01:07:48;;;;;;;;;;;;;;;;;;346833;28;1306;-81
2024/02/15 01:07:59;;;;;;;;;;;;;;;;;;347061;28;978;-81
2024/02/15 01:08:09;;;;;;;;;;;;;;;;;;348322;28;1361;-81
2024/02/15 01:08:20;;;;;;;;;;;;;;;;;;347298;28;1460;-81
2024/02/15 01:08:30;;;;;;;;;;;;;;;;;;347505;28;1367;-81
2024/02/15 01:08:40;;;;;;;;;;;;;;;;;;345475;28;1290;-81
2024/02/15 01:08:51;;;;;;;;;;;;;;;;;;344214;28;1022;-81
2024/02/15 01:09:03;;;;;;;;;;;;;;;;;;344342;28;867;-81
2024/02/15 01:09:13;;;;;;;;;;;;;;;;;;344113;28;991;-81
2024/02/15 01:09:23;;;;;;;;;;;;;;;;;;346958;28;1222;-81
2024/02/15 01:09:33;;;;;;;;;;;;;;;;;;348213;28;1033;-81
2024/02/15 01:09:45;;;;;;;;;;;;;;;;;;348315;28;1327;-81
2024/02/15 01:09:55;;;;;;;;;;;;;;;;;;346811;28;974;-81
2024/02/15 01:10:06;;;;;;;;;;;;;;;;;;346655;28;1456;-81
2024/02/15 01:10:16;;;;;;;;;;;;;;;;;;344137;28;1251;-81
2024/02/15 01:10:26;;;;;;;;;;;;;;;;;;344287;28;1516;-81
2024/02/15 01:10:37;;;;;;;;;;;;;;;;;;346949;28;990;-81
2024/02/15 01:10:47;;;;;;;;;;;;;;;;;;346941;28;958;-81
2024/02/15 01:10:57;;;;;;;;;;;;;;;;;;348306;28;1211;-81
2024/02/15 01:11:09;;;;;;;;;;;;;;;;;;348303;28;1352;-81
2024/02/15 01:11:19;;;;;;;;;;;;;;;;;;345718;28;1678;-81
2024/02/15 01:11:32;;;;;;;;;;;;;;;;;;345617;28;1002;-81
2024/02/15 01:11:42;;;;;;;;;;;;;;;;;;345573;28;1073;-81
2024/02/15 01:11:52;;;;;;;;;;;;;;;;;;345682;28;943;-81
2024/02/15 01:12:05;;;;;;;;;;;;;;;;;;343939;28;1030;-81
2024/02/15 01:12:15;;;;;;;;;;;;;;;;;;344187;28;1429;-81
2024/02/15 01:12:25;;;;;;;;;;;;;;;;;;344060;28;1029;-81
2024/02/15 01:12:35;;;;;;;;;;;;;;;;;;344269;28;1180;-81
2024/02/15 01:12:46;;;;;;;;;;;;;;;;;;342811;28;1426;-81
2024/02/15 01:12:56;;;;;;;;;;;;;;;;;;344241;28;1168;-81
2024/02/15 01:13:06;;;;;;;;;;;;;;;;;;344265;28;907;-81
2024/02/15 01:13:16;;;;;;;;;;;;;;;;;;345622;28;1279;-81
2024/02/15 01:13:26;;;;;;;;;;;;;;;;;;346988;28;990;-80
2024/02/15 01:13:37;;;;;;;;;;;;;;;;;;346921;28;990;-81
2024/02/15 01:13:47;;;;;;;;;;;;;;;;;;346827;28;974;-81
2024/02/15 01:13:57;;;;;;;;;;;;;;;;;;347143;28;1227;-81
2024/02/15 01:14:09;;;;;;;;;;;;;;;;;;345403;28;1339;-81
2024/02/15 01:14:19;;;;;;;;;;;;;;;;;;344374;28;871;-81
2024/02/15 01:14:30;;;;;;;;;;;;;;;;;;344288;28;891;-81
2024/02/15 01:14:41;;;;;;;;;;;;;;;;;;344288;28;1037;-81
2024/02/15 01:14:51;;;;;;;;;;;;;;;;;;344169;28;1370;-81
2024/02/15 01:15:01;;;;;;;;;;;;;;;;;;344383;28;856;-81